createdAt,value
2023-04-20T00:01:42.574Z,11.63
2023-04-20T00:06:45.606Z,12.13
2023-04-20T00:11:48.779Z,9.83
2023-04-20T00:16:51.903Z,9.67
2023-04-20T00:21:54.898Z,7.90
2023-04-20T00:26:57.853Z,10.17
2023-04-20T00:32:01.272Z,12.43
2023-04-20T00:37:04.242Z,8.77
2023-04-20T00:42:09.056Z,10.93
2023-04-20T00:47:11.994Z,9.93
2023-04-20T00:52:15.104Z,11.17
2023-04-20T00:57:24.102Z,8.93
2023-04-20T01:02:27.889Z,11.57
2023-04-20T01:07:31.135Z,9.97
2023-04-20T01:12:34.782Z,9.30
2023-04-20T01:17:40.977Z,12.30
2023-04-20T01:22:45.943Z,12.37
2023-04-20T01:27:49.066Z,11.00
2023-04-20T01:32:52.117Z,11.20
2023-04-20T01:37:55.133Z,10.00
2023-04-20T01:42:58.128Z,11.03
2023-04-20T01:48:02.009Z,9.13
2023-04-20T01:53:04.975Z,9.10
2023-04-20T01:58:07.997Z,9.20
2023-04-20T02:03:11.305Z,9.83
2023-04-20T02:08:14.353Z,9.50
2023-04-20T02:13:17.314Z,12.30
2023-04-20T02:18:20.230Z,11.20
2023-04-20T02:23:23.213Z,9.47
2023-04-20T02:28:26.528Z,9.07
2023-04-20T02:33:31.532Z,9.97
2023-04-20T02:38:34.462Z,7.93
2023-04-20T02:43:37.785Z,7.83
2023-04-20T02:48:40.741Z,9.70
2023-04-20T02:53:43.740Z,11.07
2023-04-20T02:58:48.623Z,10.77
2023-04-20T03:03:51.892Z,11.00
2023-04-20T03:08:55.038Z,9.53
2023-04-20T03:13:57.980Z,9.27
2023-04-20T03:19:00.913Z,13.93
2023-04-20T03:24:04.705Z,16.63
2023-04-20T03:29:07.814Z,14.00
2023-04-20T03:34:10.884Z,13.10
2023-04-20T03:39:13.892Z,33.93
2023-04-20T03:44:16.866Z,29.57
2023-04-20T03:49:28.034Z,33.47
2023-04-20T03:54:31.418Z,27.65
2023-04-20T03:59:34.305Z,21.40
2023-04-20T04:04:37.431Z,17.73
2023-04-20T04:09:40.492Z,15.83
2023-04-20T04:14:43.496Z,16.57
2023-04-20T04:19:46.461Z,31.83
2023-04-20T04:24:49.468Z,27.40
2023-04-20T04:29:52.391Z,28.80
2023-04-20T04:34:55.859Z,22.67
2023-04-20T04:39:58.857Z,21.00
2023-04-20T04:45:04.916Z,15.97
2023-04-20T04:50:09.455Z,15.63
2023-04-20T04:55:13.803Z,10.30
2023-04-20T05:00:19.098Z,14.27
2023-04-20T05:05:22.626Z,6.97
2023-04-20T05:10:25.695Z,7.60
2023-04-20T05:15:28.639Z,8.73
2023-04-20T05:20:31.644Z,9.97
2023-04-20T05:25:34.866Z,11.43
2023-04-20T05:30:37.871Z,7.37
2023-04-20T05:35:41.449Z,8.20
2023-04-20T05:40:44.500Z,6.20
2023-04-20T05:45:49.199Z,6.27
2023-04-20T05:50:52.126Z,5.20
2023-04-20T05:55:55.295Z,7.77
2023-04-20T06:00:58.330Z,12.43
2023-04-20T06:06:01.237Z,13.93
2023-04-20T06:11:04.534Z,11.47
2023-04-20T06:16:09.882Z,11.37
2023-04-20T06:21:12.986Z,17.77
2023-04-20T06:26:16.369Z,12.80
2023-04-20T06:31:20.582Z,12.90
2023-04-20T06:36:24.372Z,11.83
2023-04-20T06:41:27.370Z,6.87
2023-04-20T06:46:30.780Z,8.67
2023-04-20T06:51:34.665Z,7.47
2023-04-20T06:56:37.667Z,7.37
2023-04-20T07:01:40.676Z,8.50
2023-04-20T07:06:43.686Z,6.97
2023-04-20T07:11:46.775Z,10.40
2023-04-20T07:16:53.940Z,7.13
2023-04-20T07:21:56.965Z,7.77
2023-04-20T07:26:59.988Z,6.63
2023-04-20T07:32:02.946Z,7.22
2023-04-20T07:37:06.211Z,7.10
2023-04-20T07:42:09.345Z,7.88
2023-04-20T07:47:12.319Z,5.63
2023-04-20T07:52:16.853Z,6.35
2023-04-20T07:57:21.242Z,5.82
2023-04-20T08:02:24.682Z,5.55
2023-04-20T08:07:28.221Z,5.72
2023-04-20T08:12:31.232Z,6.25
2023-04-20T08:17:34.907Z,7.57
2023-04-20T08:22:39.339Z,5.22
2023-04-20T08:27:42.379Z,5.20
2023-04-20T08:32:45.817Z,5.38
2023-04-20T08:37:49.361Z,5.13
2023-04-20T08:42:53.025Z,5.05
2023-04-20T08:47:59.175Z,6.18
2023-04-20T08:53:03.486Z,6.47
2023-04-20T08:58:06.512Z,3.60
2023-04-20T09:03:09.600Z,4.55
2023-04-20T09:08:12.724Z,4.07
2023-04-20T09:13:23.379Z,3.25
2023-04-20T09:18:26.367Z,5.72
2023-04-20T09:23:29.310Z,4.15
2023-04-20T09:28:39.266Z,3.38
2023-04-20T09:33:42.218Z,3.42
2023-04-20T09:38:45.692Z,5.32
2023-04-20T09:43:48.893Z,3.28
2023-04-20T09:48:52.158Z,6.35
2023-04-20T09:54:01.186Z,4.22
2023-04-20T09:59:04.909Z,3.80
2023-04-20T10:04:11.071Z,3.67
2023-04-20T10:09:25.920Z,5.05
2023-04-20T10:14:29.288Z,3.10
2023-04-20T10:19:43.751Z,4.75
2023-04-20T10:24:47.162Z,3.58
2023-04-20T10:29:50.209Z,3.45
2023-04-20T10:35:08.768Z,3.88
2023-04-20T10:40:13.148Z,3.72
2023-04-20T10:45:16.201Z,7.07
2023-04-20T10:50:19.613Z,5.53
2023-04-20T10:55:25.890Z,3.78
2023-04-20T11:00:30.914Z,3.53
2023-04-20T11:05:33.713Z,3.35
2023-04-20T11:10:42.296Z,3.97
2023-04-20T11:15:45.345Z,3.65
2023-04-20T11:20:54.046Z,5.38
2023-04-20T11:25:57.529Z,3.17
2023-04-20T11:31:01.098Z,3.67
2023-04-20T11:36:04.506Z,4.18
2023-04-20T11:41:07.974Z,3.00
2023-04-20T11:46:20.482Z,4.07
2023-04-20T11:51:23.560Z,4.00
2023-04-20T11:56:26.611Z,3.00
2023-04-20T12:01:29.862Z,3.03
2023-04-20T12:06:33.350Z,2.28
2023-04-20T12:11:36.615Z,2.35
2023-04-20T12:16:39.626Z,2.88
2023-04-20T12:21:42.594Z,3.50
2023-04-20T12:26:46.031Z,3.05
2023-04-20T12:31:49.061Z,2.70
2023-04-20T12:36:52.114Z,3.72
2023-04-20T12:41:55.578Z,3.10
2023-04-20T12:46:58.569Z,2.83
2023-04-20T12:52:01.606Z,3.03
2023-04-20T12:57:04.940Z,3.08
2023-04-20T13:02:07.888Z,3.00
2023-04-20T13:07:12.021Z,1.90
2023-04-20T13:12:15.224Z,3.42
2023-04-20T13:17:18.447Z,4.07
2023-04-20T13:22:21.526Z,3.03
2023-04-20T13:27:25.574Z,3.38
2023-04-20T13:32:28.992Z,2.80
2023-04-20T13:37:33.343Z,3.17
2023-04-20T13:42:36.598Z,2.45
2023-04-20T13:47:40.623Z,1.98
2023-04-20T13:52:43.659Z,3.05
2023-04-20T13:57:47.252Z,2.47
2023-04-20T14:02:50.320Z,1.77
2023-04-20T14:07:53.345Z,1.77
2023-04-20T14:12:56.640Z,1.75
2023-04-20T14:18:00.595Z,2.47
2023-04-20T14:23:03.582Z,3.63
2023-04-20T14:28:06.948Z,2.85
2023-04-20T14:33:09.848Z,2.72
2023-04-20T14:38:12.648Z,2.90
2023-04-20T14:43:16.314Z,2.17
2023-04-20T14:48:19.339Z,1.60
2023-04-20T14:53:22.475Z,3.05
2023-04-20T14:58:25.546Z,2.75
2023-04-20T15:03:29.017Z,1.92
2023-04-20T15:08:32.263Z,3.40
2023-04-20T15:13:35.371Z,2.72
2023-04-20T15:18:38.327Z,1.65
2023-04-20T15:23:41.130Z,2.63
2023-04-20T15:28:45.190Z,2.15
2023-04-20T15:33:48.469Z,2.20
2023-04-20T15:38:54.551Z,2.38
2023-04-20T15:43:59.202Z,2.22
2023-04-20T15:49:02.243Z,2.38
2023-04-20T15:54:06.102Z,3.85
2023-04-20T15:59:09.125Z,2.97
2023-04-20T16:04:12.208Z,4.85
2023-04-20T16:09:15.617Z,4.75
2023-04-20T16:14:18.873Z,9.02
2023-04-20T16:19:22.002Z,6.70
2023-04-20T16:24:25.549Z,5.25
2023-04-20T16:29:29.006Z,5.20
2023-04-20T16:34:32.052Z,3.08
2023-04-20T16:39:35.400Z,3.83
2023-04-20T16:44:41.564Z,6.32
2023-04-20T16:49:44.954Z,3.22
2023-04-20T16:54:48.194Z,4.05
2023-04-20T16:59:51.166Z,7.38
2023-04-20T17:04:54.169Z,11.40
2023-04-20T17:09:57.462Z,5.95
2023-04-20T17:15:00.955Z,10.02
2023-04-20T17:20:07.156Z,6.13
2023-04-20T17:25:10.468Z,2.33
2023-04-20T17:30:14.232Z,8.13
2023-04-20T17:35:17.809Z,10.38
2023-04-20T17:40:20.929Z,8.75
2023-04-20T17:45:24.177Z,4.85
2023-04-20T17:50:27.164Z,5.00
2023-04-20T17:55:30.922Z,5.28
2023-04-20T18:00:33.760Z,5.13
2023-04-20T18:05:36.896Z,7.80
2023-04-20T18:10:40.241Z,6.60
2023-04-20T18:15:43.786Z,9.48
2023-04-20T18:20:48.145Z,7.68
2023-04-20T18:25:53.413Z,19.13
2023-04-20T18:30:58.806Z,16.02
2023-04-20T18:36:02.009Z,6.72
2023-04-20T18:41:05.289Z,6.97
2023-04-20T18:46:08.970Z,4.18
2023-04-20T18:51:12.175Z,4.97
2023-04-20T18:56:15.226Z,7.10
2023-04-20T19:01:18.315Z,4.73
2023-04-20T19:06:24.049Z,7.30
2023-04-20T19:11:28.954Z,7.33
2023-04-20T19:16:33.546Z,7.13
2023-04-20T19:21:36.643Z,5.35
2023-04-20T19:26:40.041Z,7.00
2023-04-20T19:31:42.950Z,7.00
2023-04-20T19:36:45.902Z,4.80
2023-04-20T19:41:48.951Z,9.37
2023-04-20T19:46:52.146Z,9.33
2023-04-20T19:51:54.956Z,9.37
2023-04-20T19:56:58.086Z,10.47
2023-04-20T20:02:01.225Z,10.60
2023-04-20T20:07:04.417Z,9.33
2023-04-20T20:12:10.832Z,7.37
2023-04-20T20:17:15.172Z,4.40
2023-04-20T20:22:19.594Z,5.20
2023-04-20T20:27:22.657Z,4.60
2023-04-20T20:32:26.045Z,5.47
2023-04-20T20:37:34.668Z,4.77
2023-04-20T20:42:40.103Z,5.90
2023-04-20T20:47:45.323Z,5.00
2023-04-20T20:52:49.222Z,4.47
2023-04-20T20:57:52.339Z,5.73
2023-04-20T21:02:55.346Z,7.00
2023-04-20T21:07:58.438Z,8.03
2023-04-20T21:13:01.469Z,4.13
2023-04-20T21:18:04.617Z,7.23
2023-04-20T21:23:07.732Z,6.40
2023-04-20T21:28:10.838Z,5.67
2023-04-20T21:33:13.905Z,8.00
2023-04-20T21:38:16.751Z,4.97
2023-04-20T21:43:19.768Z,7.33
2023-04-20T21:48:23.031Z,8.87
2023-04-20T21:53:26.242Z,9.40
2023-04-20T21:58:29.481Z,8.00
2023-04-20T22:03:35.182Z,5.60
2023-04-20T22:08:40.140Z,6.80
2023-04-20T22:13:44.192Z,8.20
2023-04-20T22:18:48.068Z,7.20
2023-04-20T22:23:51.068Z,9.80
2023-04-20T22:28:53.804Z,6.73
2023-04-20T22:33:56.716Z,9.13
2023-04-20T22:38:59.678Z,6.07
2023-04-20T22:44:02.703Z,9.93
2023-04-20T22:49:07.051Z,8.23
2023-04-20T22:54:09.909Z,5.47
2023-04-20T22:59:12.976Z,6.87
2023-04-20T23:04:16.308Z,5.20
2023-04-20T23:09:20.747Z,6.57
2023-04-20T23:14:24.574Z,5.27
2023-04-20T23:19:28.429Z,4.87
2023-04-20T23:24:31.332Z,8.40
2023-04-20T23:29:34.447Z,5.73
2023-04-20T23:34:37.396Z,11.23
2023-04-20T23:39:40.452Z,6.70
2023-04-20T23:44:43.317Z,4.77
2023-04-20T23:49:47.103Z,8.93
2023-04-20T23:54:49.946Z,5.07
2023-04-20T23:59:52.843Z,5.83
